Terminal Aerodrome Forecast
Issued by NWS Caribou, ME

Home | Current Version | Previous Version | Text Only | Print | Product List | Glossary On
Versions: 1 2 3 4 5 6 7 8 9 10 11 12 13 14 15 16 17 18 19 20 21 22
840
FTUS41 KCAR 241727
TAFBGR
TAF
KBGR 241727Z 2418/2518 19011G21KT 2SM -SN OVC020
     FM242000 21012G21KT 1SM -RASN OVC020
     FM242100 21012G21KT 2SM -RA OVC010
     FM250100 25008KT 3SM -RASN OVC005
     FM250400 36005KT P6SM BKN010
     FM250600 30006KT P6SM BKN050=

USA.gov is the U.S. government's official web portal to all federal, state and local government web resources and services.